Time;durP1;ratioP1;P1;durP2;ratioP2;P2;SDS_P1;SDS_P2;PMS_P1;PMS_P2;Temp;Humidity;BMP_temperature;BMP_pressure;BME280_temperature;BME280_humidity;BME280_pressure;Samples;Min_cycle;Max_cycle;Signal;HPM_P1;HPM_P2
2021/09/16 04:38:31;;;;;;;16.20;12.43;;;;;;;17.89;73.82;99664.41;5005018;28;105984;-61
2021/09/16 04:40:56;;;;;;;15.18;12.63;;;;;;;17.90;74.23;99656.06;5005060;28;105959;-68
2021/09/16 04:43:21;;;;;;;13.55;11.95;;;;;;;17.97;74.62;99663.28;5005158;28;106157;-70
2021/09/16 04:45:47;;;;;;;16.77;12.75;;;;;;;18.03;74.59;99665.03;5004552;28;105964;-70
2021/09/16 04:48:12;;;;;;;15.25;12.68;;;;;;;18.10;74.90;99663.88;5004274;28;106250;-63
2021/09/16 04:50:38;;;;;;;15.80;12.73;;;;;;;18.16;75.00;99664.81;5004607;28;106108;-66
2021/09/16 04:53:03;;;;;;;17.90;12.43;;;;;;;18.25;75.03;99668.81;5003005;28;106440;-62
2021/09/16 04:55:28;;;;;;;15.23;12.98;;;;;;;18.30;74.91;99672.69;5004599;28;106367;-69
2021/09/16 04:57:54;;;;;;;13.88;12.43;;;;;;;18.34;75.03;99669.28;5004456;28;107120;-66
2021/09/16 05:00:19;;;;;;;18.48;13.27;;;;;;;18.39;75.07;99672.09;5005171;28;105906;-68
2021/09/16 05:02:45;;;;;;;15.98;12.30;;;;;;;18.43;74.86;99672.47;5004961;28;106171;-66
2021/09/16 05:05:10;;;;;;;15.30;12.43;;;;;;;18.46;74.91;99674.69;5004187;28;106431;-61
2021/09/16 05:07:36;;;;;;;14.80;12.77;;;;;;;18.50;75.03;99667.75;5003666;28;106115;-68
2021/09/16 05:10:02;;;;;;;20.02;13.52;;;;;;;18.55;75.08;99667.06;5004857;28;106062;-62
2021/09/16 05:12:28;;;;;;;17.92;12.30;;;;;;;18.61;75.13;99668.81;5004266;28;106147;-66
2021/09/16 05:14:53;;;;;;;14.77;12.95;;;;;;;18.68;75.08;99671.38;5003939;28;106532;-66
2021/09/16 05:17:18;;;;;;;15.63;12.35;;;;;;;18.74;75.12;99673.13;5003900;28;105846;-63
2021/09/16 05:19:44;;;;;;;17.85;13.18;;;;;;;18.79;75.06;99673.25;5004713;28;106263;-60
2021/09/16 05:22:09;;;;;;;13.98;11.75;;;;;;;18.84;74.83;99672.53;5004547;28;106114;-57
2021/09/16 05:24:35;;;;;;;15.35;13.13;;;;;;;18.87;74.79;99670.16;5004079;28;105826;-62
2021/09/16 05:27:01;;;;;;;13.05;11.25;;;;;;;18.91;74.85;99679.47;5003566;28;105869;-67
2021/09/16 05:29:26;;;;;;;15.15;11.52;;;;;;;18.96;74.80;99677.94;5004715;28;105850;-59
2021/09/16 05:31:51;;;;;;;14.20;11.23;;;;;;;19.01;74.73;99675.34;5004120;28;105928;-64
2021/09/16 05:34:17;;;;;;;14.63;11.60;;;;;;;19.07;74.65;99674.41;5003097;28;117158;-71
2021/09/16 05:36:42;;;;;;;13.82;12.05;;;;;;;19.13;74.44;99673.44;5002966;28;106295;-67
2021/09/16 05:39:09;;;;;;;15.27;11.00;;;;;;;19.21;74.61;99681.16;5004312;28;106069;-72
2021/09/16 05:41:35;;;;;;;14.27;11.35;;;;;;;19.30;74.62;99681.63;5003902;28;106225;-71
2021/09/16 05:44:01;;;;;;;13.20;11.80;;;;;;;19.38;74.35;99683.94;5003594;28;106423;-72
2021/09/16 05:46:26;;;;;;;17.58;12.65;;;;;;;19.45;74.13;99687.31;5003574;28;106003;-72
2021/09/16 05:48:52;;;;;;;14.18;12.02;;;;;;;19.51;73.80;99682.81;4996117;28;105858;-72
2021/09/16 05:51:17;;;;;;;19.48;11.65;;;;;;;19.58;74.08;99686.19;4990416;28;105889;-68
2021/09/16 05:53:43;;;;;;;14.20;12.48;;;;;;;19.65;73.77;99682.53;4989134;28;105771;-70
2021/09/16 05:56:08;;;;;;;14.50;11.93;;;;;;;19.70;73.72;99682.63;4989488;28;105807;-71
2021/09/16 05:58:33;;;;;;;18.13;11.98;;;;;;;19.75;73.47;99683.53;4990415;28;105806;-70
2021/09/16 06:00:59;;;;;;;16.90;11.63;;;;;;;19.78;73.57;99684.91;4990068;28;106147;-66
2021/09/16 06:03:24;;;;;;;14.32;12.13;;;;;;;19.81;73.64;99684.47;4990048;28;106665;-70
2021/09/16 06:05:49;;;;;;;14.77;11.48;;;;;;;19.84;73.25;99688.56;4989250;28;105939;-67
2021/09/16 06:08:15;;;;;;;14.57;12.10;;;;;;;19.86;73.30;99687.25;4990632;28;106059;-70
2021/09/16 06:10:40;;;;;;;12.40;10.60;;;;;;;19.83;73.13;99693.13;4988566;28;106119;-69
2021/09/16 06:13:05;;;;;;;14.88;12.35;;;;;;;19.84;73.03;99694.78;4989616;28;106078;-70
2021/09/16 06:15:31;;;;;;;18.00;10.98;;;;;;;19.81;72.97;99689.06;4989720;28;106234;-70
2021/09/16 06:17:56;;;;;;;14.32;11.35;;;;;;;19.81;73.35;99694.47;4990500;28;106099;-68
2021/09/16 06:20:22;;;;;;;16.27;11.15;;;;;;;19.84;73.18;99694.78;4990369;28;106175;-71
2021/09/16 06:22:47;;;;;;;20.65;12.10;;;;;;;19.88;73.18;99693.22;4989566;28;105960;-70
2021/09/16 06:25:17;;;;;;;17.45;11.48;;;;;;;19.87;72.75;99696.97;4989499;28;105981;-67
2021/09/16 06:27:43;;;;;;;12.13;10.75;;;;;;;19.82;72.69;99690.66;4990152;28;106075;-69
2021/09/16 06:30:09;;;;;;;12.80;11.45;;;;;;;19.74;72.50;99692.69;4990156;28;106134;-67
2021/09/16 06:32:37;;;;;;;16.73;11.45;;;;;;;19.73;72.82;99703.75;4989562;28;106905;-68
2021/09/16 06:35:03;;;;;;;14.88;13.18;;;;;;;19.74;72.92;99700.78;4989663;28;106127;-67
2021/09/16 06:37:29;;;;;;;19.70;13.15;;;;;;;19.75;72.87;99704.31;4989779;28;106245;-70
2021/09/16 06:39:54;;;;;;;15.68;13.10;;;;;;;19.76;72.99;99698.66;4989811;28;106307;-68
2021/09/16 06:42:19;;;;;;;17.58;13.48;;;;;;;19.79;72.95;99713.56;4989508;28;105850;-66
2021/09/16 06:44:45;;;;;;;17.55;12.85;;;;;;;19.85;73.25;99706.41;4989410;28;106205;-66
2021/09/16 06:47:10;;;;;;;16.63;13.45;;;;;;;19.86;72.87;99702.63;4990141;28;106006;-67
2021/09/16 06:49:48;;;;;;;17.25;13.57;;;;;;;19.86;72.77;99708.88;4989513;28;106246;-69
2021/09/16 06:52:16;;;;;;;16.65;13.23;;;;;;;19.87;73.02;99709.69;4987637;28;107301;-69
2021/09/16 06:54:42;;;;;;;14.05;12.63;;;;;;;19.88;72.97;99716.75;4988944;28;106183;-71
2021/09/16 06:57:08;;;;;;;16.25;13.27;;;;;;;19.90;72.77;99725.41;4990031;28;106069;-69
2021/09/16 06:59:34;;;;;;;19.08;13.50;;;;;;;19.93;72.88;99725.75;4988742;28;106103;-69
2021/09/16 07:01:59;;;;;;;19.10;12.88;;;;;;;19.97;73.01;99722.56;4988313;28;111598;-69
2021/09/16 07:04:24;;;;;;;17.00;14.25;;;;;;;20.04;72.97;99723.22;4988325;28;105987;-58
2021/09/16 07:06:49;;;;;;;17.88;13.80;;;;;;;20.12;73.28;99726.34;4989392;28;106267;-62
2021/09/16 07:09:15;;;;;;;14.10;12.48;;;;;;;20.21;72.92;99729.47;4988254;28;105985;-62
2021/09/16 07:11:40;;;;;;;18.98;13.25;;;;;;;20.28;72.87;99722.03;4988425;28;106527;-68
2021/09/16 07:14:06;;;;;;;20.25;13.95;;;;;;;20.35;72.65;99718.31;4988404;28;106027;-67
2021/09/16 07:16:31;;;;;;;16.92;14.32;;;;;;;20.46;72.74;99728.22;4989635;28;105845;-66
2021/09/16 07:18:56;;;;;;;17.77;14.05;;;;;;;20.59;72.88;99722.47;4989153;28;106754;-70
2021/09/16 07:21:22;;;;;;;17.15;13.75;;;;;;;20.74;72.51;99723.81;4988842;28;106798;-69
2021/09/16 07:23:47;;;;;;;20.98;15.60;;;;;;;20.76;72.07;99721.66;4988306;28;106126;-69
2021/09/16 07:26:13;;;;;;;18.08;13.05;;;;;;;20.84;72.20;99729.34;4988348;28;106030;-68
2021/09/16 07:28:38;;;;;;;18.48;13.95;;;;;;;21.00;72.36;99737.69;4988124;28;106432;-65
2021/09/16 07:31:04;;;;;;;17.08;13.55;;;;;;;21.02;71.40;99738.25;4988353;28;106014;-68
2021/09/16 07:33:30;;;;;;;19.85;14.95;;;;;;;21.05;71.78;99740.47;4988060;28;105846;-67
2021/09/16 07:35:56;;;;;;;18.45;14.20;;;;;;;21.23;71.79;99742.88;4988953;28;105988;-64
2021/09/16 07:38:21;;;;;;;19.27;12.93;;;;;;;21.43;71.65;99736.06;4988474;28;105979;-67
2021/09/16 07:40:46;;;;;;;17.65;13.05;;;;;;;21.70;71.37;99740.72;4988193;28;107317;-67
2021/09/16 07:43:12;;;;;;;15.50;13.15;;;;;;;21.93;71.01;99740.41;4992280;28;115755;-66
2021/09/16 07:45:37;;;;;;;14.38;12.90;;;;;;;22.17;70.85;99736.56;4987591;28;106151;-66
2021/09/16 07:48:03;;;;;;;19.10;12.68;;;;;;;22.41;70.49;99745.19;4986860;28;106170;-65
2021/09/16 07:50:28;;;;;;;15.35;12.30;;;;;;;22.58;69.65;99745.88;4987844;28;106009;-70
2021/09/16 07:52:54;;;;;;;13.77;12.32;;;;;;;22.69;69.08;99745.91;4988166;28;106090;-68
2021/09/16 07:55:19;;;;;;;16.10;12.68;;;;;;;22.74;68.71;99745.97;4989197;28;106071;-71
2021/09/16 07:57:44;;;;;;;17.58;11.27;;;;;;;22.86;68.91;99752.00;4988418;28;106178;-72
2021/09/16 08:00:10;;;;;;;14.63;11.70;;;;;;;23.05;68.38;99741.53;4988074;28;106034;-73
2021/09/16 08:02:46;;;;;;;13.90;11.25;;;;;;;23.20;67.49;99740.00;4988288;28;106044;-73
2021/09/16 08:05:13;;;;;;;11.73;10.00;;;;;;;23.23;66.64;99747.63;4989254;28;105929;-73
2021/09/16 08:07:38;;;;;;;17.08;11.15;;;;;;;23.36;67.42;99740.84;4988555;28;106309;-70
2021/09/16 08:10:04;;;;;;;14.50;10.07;;;;;;;23.46;66.15;99751.78;4988167;28;107676;-69
2021/09/16 08:12:29;;;;;;;12.68;9.90;;;;;;;23.42;65.80;99745.25;4987795;28;106115;-72
2021/09/16 08:14:54;;;;;;;10.55;9.30;;;;;;;23.44;65.69;99746.63;4988064;28;106118;-71
2021/09/16 08:17:20;;;;;;;13.30;9.20;;;;;;;23.52;66.11;99753.41;4988860;28;106201;-69
2021/09/16 08:19:45;;;;;;;10.32;9.02;;;;;;;23.51;64.96;99759.97;4988493;28;108772;-66
2021/09/16 08:22:11;;;;;;;12.55;9.45;;;;;;;23.39;64.56;99759.34;4988859;28;105849;-68
2021/09/16 08:24:36;;;;;;;11.02;8.15;;;;;;;23.36;64.75;99759.88;4989427;28;105877;-69
2021/09/16 08:27:02;;;;;;;9.98;8.13;;;;;;;23.45;64.86;99761.00;4988824;28;106516;-72
2021/09/16 08:29:27;;;;;;;12.15;9.15;;;;;;;23.60;64.87;99762.97;4987357;28;106006;-66
2021/09/16 08:31:53;;;;;;;12.02;8.35;;;;;;;23.75;64.72;99756.75;4988693;28;106496;-65
2021/09/16 08:34:18;;;;;;;10.73;7.43;;;;;;;23.92;64.46;99751.94;4989647;28;105982;-69
2021/09/16 08:36:43;;;;;;;12.07;7.78;;;;;;;24.15;64.08;99760.63;4988269;28;108070;-68
2021/09/16 08:39:09;;;;;;;9.98;7.32;;;;;;;24.29;63.39;99764.47;4988743;28;105975;-68
2021/09/16 08:41:36;;;;;;;8.77;6.85;;;;;;;24.35;62.52;99768.00;4986912;28;105882;-64
2021/09/16 08:44:03;;;;;;;8.27;6.35;;;;;;;24.25;61.60;99759.81;4987714;28;106237;-68
2021/09/16 08:46:29;;;;;;;8.32;6.57;;;;;;;24.04;61.47;99762.53;4986963;28;106224;-68
2021/09/16 08:48:54;;;;;;;11.60;6.13;;;;;;;23.90;61.64;99758.72;4987618;28;106172;-64
2021/09/16 08:51:20;;;;;;;9.07;6.57;;;;;;;23.78;61.94;99762.47;4986995;28;105738;-65
2021/09/16 08:53:46;;;;;;;9.65;6.47;;;;;;;23.72;62.15;99770.91;4988603;28;105852;-65
2021/09/16 08:56:13;;;;;;;9.10;6.75;;;;;;;23.64;61.93;99762.16;4987387;28;106262;-65
2021/09/16 08:58:40;;;;;;;9.23;6.63;;;;;;;23.62;61.77;99761.63;4983094;28;106245;-67
2021/09/16 09:01:05;;;;;;;8.57;6.80;;;;;;;23.59;61.48;99756.72;4985604;28;106035;-69
2021/09/16 09:03:30;;;;;;;10.30;6.05;;;;;;;23.61;61.71;99762.69;4986879;28;106564;-71
2021/09/16 09:05:56;;;;;;;12.50;7.00;;;;;;;23.70;61.89;99760.25;4986602;28;106344;-67
2021/09/16 09:08:23;;;;;;;8.82;7.07;;;;;;;23.69;61.31;99760.53;4985921;28;106147;-70
2021/09/16 09:10:51;;;;;;;12.25;8.20;;;;;;;23.65;61.51;99758.34;4985881;28;106276;-69
2021/09/16 09:13:37;;;;;;;10.65;7.05;;;;;;;23.59;61.32;99759.44;4986726;28;106040;-71
2021/09/16 09:16:08;;;;;;;11.70;7.20;;;;;;;23.46;60.97;99757.22;4986377;28;106065;-73
2021/09/16 09:18:59;;;;;;;11.05;6.88;;;;;;;23.24;60.83;99752.78;4985825;28;106052;-71
2021/09/16 09:21:35;;;;;;;9.18;6.85;;;;;;;23.03;61.11;99762.69;4984192;28;106284;-73
2021/09/16 09:24:01;;;;;;;8.38;6.53;;;;;;;22.93;61.66;99758.00;4988231;28;106055;-72
2021/09/16 09:26:34;;;;;;;8.27;5.65;;;;;;;22.79;61.77;99762.28;4989820;28;106612;-71
2021/09/16 09:29:09;;;;;;;10.23;5.95;;;;;;;22.66;61.71;99766.25;4989139;28;106018;-71
2021/09/16 09:32:02;;;;;;;7.00;6.30;;;;;;;22.55;62.23;99762.66;4988259;28;106003;-69
2021/09/16 09:34:36;;;;;;;8.15;6.20;;;;;;;22.46;62.44;99761.53;4989981;28;107151;-70
2021/09/16 09:37:20;;;;;;;16.83;13.35;;;;;;;22.42;62.64;99763.13;4988630;28;106179;-71
2021/09/16 09:39:57;;;;;;;10.02;8.50;;;;;;;22.48;62.90;99760.19;4988798;28;107257;-72
2021/09/16 09:42:29;;;;;;;7.13;5.63;;;;;;;22.59;63.08;99757.53;4987020;28;106372;-73
2021/09/16 09:45:02;;;;;;;7.10;5.65;;;;;;;22.69;62.91;99756.78;4989037;28;106546;-71
2021/09/16 09:47:36;;;;;;;6.65;5.90;;;;;;;22.78;62.70;99755.22;4989195;28;106663;-71
2021/09/16 09:50:01;;;;;;;8.85;6.55;;;;;;;22.81;62.41;99757.41;4988768;28;107131;-70
2021/09/16 09:52:27;;;;;;;9.82;6.43;;;;;;;22.79;62.39;99756.84;4988774;28;106027;-70
2021/09/16 09:54:52;;;;;;;8.75;5.32;;;;;;;22.85;62.54;99755.78;4989419;28;106221;-69
2021/09/16 09:57:19;;;;;;;8.25;4.63;;;;;;;23.05;62.39;99757.00;4988848;28;106379;-70
2021/09/16 09:59:58;;;;;;;7.00;4.38;;;;;;;23.26;61.98;99756.03;4988987;28;106751;-70
2021/09/16 10:02:27;;;;;;;6.38;4.18;;;;;;;23.35;61.25;99750.09;4988778;28;106074;-67
2021/09/16 10:04:53;;;;;;;7.90;4.72;;;;;;;23.36;60.71;99754.44;4989275;28;105963;-69
2021/09/16 10:07:34;;;;;;;5.78;4.97;;;;;;;23.39;60.81;99756.63;4988720;28;106275;-69
2021/09/16 10:10:01;;;;;;;6.28;4.60;;;;;;;23.47;60.52;99748.00;4988184;28;106634;-72
2021/09/16 10:12:28;;;;;;;8.95;5.63;;;;;;;23.75;60.41;99756.75;4988507;28;106082;-71
2021/09/16 10:14:53;;;;;;;6.90;5.75;;;;;;;24.07;59.50;99748.41;4989197;28;105963;-69
2021/09/16 10:17:19;;;;;;;6.25;5.35;;;;;;;24.33;59.27;99757.38;4988508;28;106209;-67
2021/09/16 10:19:44;;;;;;;6.68;4.82;;;;;;;24.43;58.41;99753.03;4988658;28;106502;-68
2021/09/16 10:22:12;;;;;;;6.38;5.30;;;;;;;24.57;58.41;99745.94;4987874;28;106087;-71
2021/09/16 10:24:37;;;;;;;8.27;6.00;;;;;;;24.60;57.76;99756.28;4989491;28;106321;-70
2021/09/16 10:27:23;;;;;;;8.93;5.57;;;;;;;24.45;57.45;99754.41;4988385;28;106244;-69
2021/09/16 10:29:48;;;;;;;8.43;6.22;;;;;;;24.32;57.74;99753.03;4990665;28;106113;-68
2021/09/16 10:32:20;;;;;;;11.93;10.48;;;;;;;24.15;57.47;99753.31;4987453;28;106048;-71
2021/09/16 10:34:47;;;;;;;8.73;6.55;;;;;;;23.98;58.17;99750.03;4987610;28;106011;-67
2021/09/16 10:37:15;;;;;;;5.47;4.57;;;;;;;23.79;58.29;99749.69;4987349;28;106345;-69
2021/09/16 10:39:42;;;;;;;7.90;5.13;;;;;;;23.60;58.29;99752.09;4984979;28;106167;-68
2021/09/16 10:42:09;;;;;;;6.10;4.85;;;;;;;23.45;58.47;99750.94;4996642;28;106545;-68
2021/09/16 10:44:36;;;;;;;5.60;4.22;;;;;;;23.31;58.79;99747.91;5008415;28;106115;-68
2021/09/16 10:47:15;;;;;;;5.95;4.97;;;;;;;23.21;58.90;99758.75;5002411;28;106223;-67
2021/09/16 10:49:42;;;;;;;7.70;4.93;;;;;;;23.17;59.28;99754.09;5006322;28;106148;-70
2021/09/16 10:52:10;;;;;;;6.10;5.45;;;;;;;23.11;59.38;99764.94;5007777;28;106472;-67
2021/09/16 10:54:48;;;;;;;8.45;6.10;;;;;;;23.03;59.55;99762.69;5008967;28;106278;-69
2021/09/16 10:57:29;;;;;;;8.95;6.10;;;;;;;22.84;59.77;99770.47;5007668;28;106142;-70
2021/09/16 10:59:54;;;;;;;9.55;6.18;;;;;;;22.58;60.28;99773.00;5007903;28;107142;-65
2021/09/16 11:02:47;;;;;;;7.03;6.32;;;;;;;22.35;60.95;99771.47;5007680;28;106040;-68
2021/09/16 11:05:17;;;;;;;7.82;5.78;;;;;;;22.19;61.95;99775.91;5005163;28;106239;-69
2021/09/16 11:07:42;;;;;;;7.30;5.80;;;;;;;22.06;62.39;99776.31;4988146;28;105964;-68
2021/09/16 11:10:17;;;;;;;7.05;5.50;;;;;;;22.00;62.82;99777.34;4994524;28;107996;-68
2021/09/16 11:12:50;;;;;;;6.55;5.80;;;;;;;21.94;63.21;99774.59;4987763;28;106027;-69
2021/09/16 11:15:30;;;;;;;7.50;5.75;;;;;;;21.83;63.51;99777.44;4988441;28;106198;-70
2021/09/16 11:18:16;;;;;;;7.35;6.43;;;;;;;21.72;63.76;99782.78;4987815;28;106485;-68
2021/09/16 11:20:45;;;;;;;8.77;6.43;;;;;;;21.68;64.17;99778.94;4987050;28;106090;-69
2021/09/16 11:23:12;;;;;;;7.43;5.93;;;;;;;21.66;64.36;99782.97;4987368;28;106484;-70
2021/09/16 11:25:42;;;;;;;18.90;14.40;;;;;;;21.60;64.51;99785.59;4988119;28;106176;-69
2021/09/16 11:28:08;;;;;;;9.90;6.88;;;;;;;21.60;64.54;99785.59;4987792;28;106358;-68
2021/09/16 11:30:35;;;;;;;9.45;6.28;;;;;;;21.58;64.74;99782.34;4987548;28;106527;-69
2021/09/16 11:33:05;;;;;;;8.27;6.28;;;;;;;21.58;64.84;99786.94;4986971;28;106476;-67
2021/09/16 11:35:31;;;;;;;10.45;6.43;;;;;;;21.52;65.05;99788.72;4988216;28;106001;-68
2021/09/16 11:37:56;;;;;;;9.25;6.40;;;;;;;21.49;65.21;99783.81;4977346;28;106445;-67
2021/09/16 11:40:24;;;;;;;15.38;6.38;;;;;;;21.52;65.52;99780.59;4971129;28;106945;-65
2021/09/16 11:42:59;;;;;;;9.15;6.63;;;;;;;21.60;65.73;99782.91;4968653;28;106033;-71
2021/09/16 11:45:29;;;;;;;8.25;6.35;;;;;;;21.62;65.73;99777.22;4969538;28;106123;-68
2021/09/16 11:48:07;;;;;;;9.77;7.18;;;;;;;21.68;66.02;99776.22;4990478;28;106034;-63
2021/09/16 11:50:49;;;;;;;8.88;6.28;;;;;;;21.74;66.00;99774.38;4998961;28;105893;-66
2021/09/16 11:53:18;;;;;;;12.10;7.40;;;;;;;21.77;66.09;99774.69;4997690;28;106163;-67
2021/09/16 11:55:52;;;;;;;9.40;7.20;;;;;;;21.78;66.08;99775.50;4998578;28;105922;-65
2021/09/16 11:58:22;;;;;;;10.88;8.20;;;;;;;21.76;66.03;99775.78;4994452;28;106079;-64
2021/09/16 12:00:59;;;;;;;9.52;6.82;;;;;;;21.74;66.40;99774.38;4997177;28;106568;-68
2021/09/16 12:03:28;;;;;;;10.82;6.68;;;;;;;21.70;66.52;99767.84;4996560;28;106190;-68
2021/09/16 12:06:06;;;;;;;9.52;7.45;;;;;;;21.63;66.55;99766.13;4997685;28;105923;-71
2021/09/16 12:08:52;;;;;;;12.20;7.88;;;;;;;21.58;66.76;99766.09;4997012;28;106231;-69
2021/09/16 12:11:26;;;;;;;15.52;12.68;;;;;;;21.60;67.25;99763.13;4994493;28;106008;-67
2021/09/16 12:13:53;;;;;;;14.23;11.38;;;;;;;21.63;67.34;99760.69;4996334;28;105914;-68
2021/09/16 12:16:47;;;;;;;12.60;8.95;;;;;;;21.59;66.74;99767.69;4998846;28;106618;-67
2021/09/16 12:19:14;;;;;;;11.90;8.13;;;;;;;21.57;67.09;99769.88;4994521;28;106277;-69
2021/09/16 12:21:45;;;;;;;8.90;7.00;;;;;;;21.63;67.44;99768.84;4997568;28;106745;-68
2021/09/16 12:24:13;;;;;;;10.38;7.88;;;;;;;21.67;67.20;99765.63;4998694;28;105948;-66
2021/09/16 12:26:39;;;;;;;10.38;8.20;;;;;;;21.72;67.50;99765.66;5001674;28;105983;-67
2021/09/16 12:29:09;;;;;;;10.60;6.82;;;;;;;21.84;67.46;99766.34;5008437;28;105926;-66
2021/09/16 12:31:36;;;;;;;8.83;7.67;;;;;;;21.95;67.42;99765.38;5008184;28;105949;-68
2021/09/16 12:34:12;;;;;;;11.90;7.47;;;;;;;22.12;67.49;99767.16;5007937;28;105791;-65
2021/09/16 12:36:50;;;;;;;10.60;7.72;;;;;;;22.37;67.40;99761.16;5007548;28;105865;-64
2021/09/16 12:39:16;;;;;;;11.50;7.55;;;;;;;22.71;67.36;99765.50;5007341;28;106294;-68
2021/09/16 12:42:08;;;;;;;9.23;7.03;;;;;;;23.14;67.21;99760.88;5007228;28;106094;-65
2021/09/16 12:44:36;;;;;;;9.55;6.95;;;;;;;23.69;66.12;99761.38;5006807;28;106778;-65
2021/09/16 12:47:05;;;;;;;8.40;6.68;;;;;;;24.66;66.43;99763.38;5007870;28;106054;-62
2021/09/16 12:49:42;;;;;;;9.07;6.72;;;;;;;25.66;64.39;99768.25;5007821;28;106204;-63
2021/09/16 12:52:24;;;;;;;8.50;6.50;;;;;;;26.30;63.19;99762.94;5007559;28;105846;-66
2021/09/16 13:54:54;;;;;;;12.65;8.32;;;;;;;22.21;63.63;99754.78;5010619;28;106202;-65
2021/09/16 13:57:19;;;;;;;11.52;8.43;;;;;;;22.23;64.00;99755.31;5016248;28;105969;-67
2021/09/16 13:59:45;;;;;;;11.55;8.32;;;;;;;22.36;64.42;99756.81;5011918;28;106189;-66
2021/09/16 14:02:10;;;;;;;12.70;7.53;;;;;;;22.58;64.30;99756.72;5014788;27;106601;-66
2021/09/16 14:04:35;;;;;;;14.15;9.80;;;;;;;22.75;64.07;99753.03;5017894;28;106225;-66
2021/09/16 14:07:01;;;;;;;14.07;9.82;;;;;;;22.89;63.69;99766.97;5008320;27;106514;-66
2021/09/16 14:09:26;;;;;;;10.52;7.32;;;;;;;22.97;63.52;99764.56;5019230;28;106042;-66
2021/09/16 14:11:52;;;;;;;10.38;7.88;;;;;;;23.10;63.08;99760.56;5012259;28;106349;-64
2021/09/16 14:14:17;;;;;;;10.13;8.18;;;;;;;23.23;62.90;99762.00;5013165;27;106076;-67
2021/09/16 14:16:43;;;;;;;10.40;7.57;;;;;;;23.27;62.85;99759.59;5020093;28;105994;-65
2021/09/16 14:19:08;;;;;;;9.18;7.22;;;;;;;23.31;62.61;99753.34;5007840;28;106357;-65
2021/09/16 14:21:36;;;;;;;10.65;8.13;;;;;;;23.36;62.14;99754.44;5019513;28;106627;-66
2021/09/16 14:24:04;;;;;;;9.55;7.57;;;;;;;23.31;61.86;99757.97;5013029;28;106064;-66
2021/09/16 14:26:29;;;;;;;9.57;7.88;;;;;;;23.28;61.92;99762.03;5012679;27;106079;-66
2021/09/16 14:28:55;;;;;;;9.55;7.68;;;;;;;23.29;61.88;99755.53;5020828;28;106284;-66
2021/09/16 14:31:20;;;;;;;10.18;6.82;;;;;;;23.31;62.09;99757.97;5006275;28;106887;-66
2021/09/16 14:33:45;;;;;;;11.75;7.30;;;;;;;23.24;62.10;99752.78;5011909;28;106145;-67
2021/09/16 14:36:11;;;;;;;12.70;7.85;;;;;;;23.18;61.89;99753.81;5012866;27;106332;-66
2021/09/16 14:38:36;;;;;;;11.25;8.00;;;;;;;23.18;62.17;99755.72;5019975;28;105955;-63
2021/09/16 14:41:02;;;;;;;8.65;7.30;;;;;;;23.08;61.80;99748.31;5007592;27;107041;-66
2021/09/16 14:43:27;;;;;;;9.05;7.18;;;;;;;22.95;61.79;99755.88;5017724;27;106278;-66
2021/09/16 14:45:53;;;;;;;12.02;10.82;;;;;;;22.86;61.91;99757.44;5014498;28;105866;-66
2021/09/16 14:48:18;;;;;;;8.85;7.70;;;;;;;22.78;61.90;99745.16;5010757;27;106226;-66
2021/09/16 14:50:43;;;;;;;8.75;7.25;;;;;;;22.70;61.80;99753.81;5020402;28;105912;-64
2021/09/16 14:53:09;;;;;;;7.88;7.03;;;;;;;22.65;61.93;99756.50;5006828;28;106058;-66
2021/09/16 14:55:34;;;;;;;8.38;6.60;;;;;;;22.63;61.87;99754.03;5017572;27;106044;-68
2021/09/16 14:58:00;;;;;;;8.93;7.50;;;;;;;22.57;61.83;99757.00;5014739;28;106028;-65
2021/09/16 15:00:26;;;;;;;8.15;7.22;;;;;;;22.52;61.81;99757.75;5009396;27;105822;-65
2021/09/16 15:02:52;;;;;;;12.18;7.32;;;;;;;22.44;61.78;99748.22;5004974;27;106425;-64
2021/09/16 15:05:20;;;;;;;9.00;6.57;;;;;;;22.40;62.01;99751.69;5005440;28;105921;-66
2021/09/16 15:07:46;;;;;;;8.77;7.65;;;;;;;22.37;61.98;99750.31;4997799;28;106239;-69
2021/09/16 15:10:13;;;;;;;9.63;7.65;;;;;;;22.36;62.06;99756.00;5005973;28;106723;-66
2021/09/16 15:12:38;;;;;;;9.00;7.75;;;;;;;22.34;62.39;99755.44;4988654;28;107217;-66
2021/09/16 15:15:05;;;;;;;10.60;7.40;;;;;;;22.27;62.28;99755.63;4991132;28;106061;-63
2021/09/16 15:17:30;;;;;;;9.13;7.80;;;;;;;22.20;62.49;99750.44;4990457;28;106182;-63
2021/09/16 15:19:56;;;;;;;9.00;7.88;;;;;;;22.11;62.49;99751.97;4990601;28;106837;-63
2021/09/16 15:22:21;;;;;;;39.55;30.13;;;;;;;21.98;62.48;99747.78;4986691;28;106056;-65
2021/09/16 15:24:48;;;;;;;11.85;9.30;;;;;;;21.86;62.51;99747.94;4989332;28;105986;-69
2021/09/16 15:27:13;;;;;;;9.68;8.23;;;;;;;21.77;62.53;99746.75;4987790;28;106216;-68
2021/09/16 15:29:39;;;;;;;9.80;8.32;;;;;;;21.69;62.73;99761.56;4988922;28;106104;-68
2021/09/16 15:32:04;;;;;;;9.55;8.00;;;;;;;21.63;62.81;99755.28;4988971;28;106971;-70
2021/09/16 15:34:30;;;;;;;11.52;9.15;;;;;;;21.54;62.82;99759.53;4989007;28;106234;-68
2021/09/16 15:36:55;;;;;;;9.77;8.43;;;;;;;21.44;62.94;99751.25;4988668;28;106518;-69
2021/09/16 15:39:20;;;;;;;9.85;8.85;;;;;;;21.39;63.22;99756.59;4988494;28;106725;-66
2021/09/16 15:41:46;;;;;;;11.82;8.85;;;;;;;21.37;63.39;99764.16;4988775;28;106146;-65
2021/09/16 15:44:14;;;;;;;9.80;8.02;;;;;;;21.35;63.55;99758.16;4989257;28;106026;-67
2021/09/16 15:46:39;;;;;;;16.13;8.30;;;;;;;21.38;63.73;99758.50;4988430;28;106214;-66
2021/09/16 15:49:04;;;;;;;10.82;9.35;;;;;;;21.38;63.81;99760.38;4988643;28;106562;-73
2021/09/16 15:51:30;;;;;;;15.05;8.95;;;;;;;21.39;63.86;99752.00;4993694;28;106164;-64
2021/09/16 15:53:55;;;;;;;11.73;8.05;;;;;;;21.42;63.91;99762.34;5003025;28;106536;-66
2021/09/16 15:56:20;;;;;;;10.48;8.60;;;;;;;21.45;64.21;99761.00;5008826;28;105951;-67
2021/09/16 15:58:46;;;;;;;13.85;9.27;;;;;;;21.47;64.03;99754.28;5007767;28;105986;-67
2021/09/16 16:01:12;;;;;;;11.55;8.50;;;;;;;21.49;64.02;99762.16;5007907;28;106015;-66
2021/09/16 16:03:38;;;;;;;32.83;12.68;;;;;;;21.48;63.97;99752.38;5004539;28;106120;-66
2021/09/16 16:06:05;;;;;;;13.15;9.23;;;;;;;21.46;64.17;99758.06;4997462;28;105918;-68
2021/09/16 16:08:30;;;;;;;10.80;9.73;;;;;;;21.45;64.18;99761.81;5008291;28;106049;-67
2021/09/16 16:10:55;;;;;;;12.45;9.93;;;;;;;21.40;64.17;99764.47;5007717;28;105999;-67
2021/09/16 16:13:21;;;;;;;12.20;10.05;;;;;;;21.36;64.41;99765.22;5008954;28;107518;-66
2021/09/16 16:15:47;;;;;;;10.70;9.43;;;;;;;21.32;64.53;99762.19;5007557;28;106195;-67
2021/09/16 16:18:13;;;;;;;13.13;10.05;;;;;;;21.28;64.46;99767.31;5007410;28;105986;-66
2021/09/16 16:20:39;;;;;;;13.45;9.63;;;;;;;21.21;64.53;99765.84;5007646;28;106614;-66
2021/09/16 16:23:04;;;;;;;10.40;8.05;;;;;;;21.11;64.76;99767.34;5008620;28;105942;-65
2021/09/16 16:25:30;;;;;;;9.63;8.32;;;;;;;21.04;64.63;99771.34;5007924;28;106345;-66
2021/09/16 16:27:55;;;;;;;9.40;7.57;;;;;;;20.95;64.59;99774.47;5007536;28;106311;-66
2021/09/16 16:30:20;;;;;;;9.85;7.90;;;;;;;20.86;64.58;99772.41;5007727;28;105931;-63
2021/09/16 16:32:46;;;;;;;9.52;8.60;;;;;;;20.77;64.45;99770.13;5008157;28;105988;-65
2021/09/16 16:35:11;;;;;;;10.52;7.57;;;;;;;20.70;64.60;99771.38;5007467;28;106271;-67
2021/09/16 16:37:38;;;;;;;9.00;8.07;;;;;;;20.61;64.51;99766.34;5007349;28;106556;-65
2021/09/16 16:40:05;;;;;;;11.93;8.30;;;;;;;20.56;64.62;99771.69;5007311;28;106092;-67
2021/09/16 16:42:30;;;;;;;9.70;7.75;;;;;;;20.53;64.53;99774.06;5007729;28;106053;-65
2021/09/16 16:44:56;;;;;;;9.73;7.38;;;;;;;20.45;64.42;99775.31;5007442;28;106036;-65
2021/09/16 16:47:21;;;;;;;9.32;7.20;;;;;;;20.38;64.48;99775.47;5006676;28;106504;-66
2021/09/16 16:49:46;;;;;;;10.63;8.52;;;;;;;20.33;64.49;99778.06;5007722;28;106029;-65
2021/09/16 16:52:12;;;;;;;12.30;8.30;;;;;;;20.29;64.75;99771.50;5004718;28;106017;-66
2021/09/16 16:54:37;;;;;;;14.65;7.82;;;;;;;20.25;64.71;99778.47;5002627;28;106165;-65
2021/09/16 16:57:04;;;;;;;9.60;7.43;;;;;;;20.22;65.06;99790.59;5007576;28;107468;-67